sensor_id;sensor_type;location;lat;lon;timestamp;temperature;humidity
18882;DHT22;9573;50.948;11.600;2022-10-30T05:22:44;11.50;99.90
18882;DHT22;9573;50.948;11.600;2022-10-30T05:25:11;11.40;99.90
18882;DHT22;9573;50.948;11.600;2022-10-30T05:27:40;11.50;99.90
18882;DHT22;9573;50.948;11.600;2022-10-30T05:30:08;11.60;99.90
18882;DHT22;9573;50.948;11.600;2022-10-30T05:32:35;11.80;99.90
18882;DHT22;9573;50.948;11.600;2022-10-30T05:35:03;11.90;99.90
18882;DHT22;9573;50.948;11.600;2022-10-30T05:37:30;12.10;99.90
18882;DHT22;9573;50.948;11.600;2022-10-30T05:39:59;12.20;99.90
18882;DHT22;9573;50.948;11.600;2022-10-30T05:42:26;12.30;99.90
18882;DHT22;9573;50.948;11.600;2022-10-30T05:44:53;12.40;99.90
18882;DHT22;9573;50.948;11.600;2022-10-30T05:47:20;12.40;99.90
18882;DHT22;9573;50.948;11.600;2022-10-30T05:49:47;12.50;99.90
18882;DHT22;9573;50.948;11.600;2022-10-30T05:52:14;12.50;99.90
18882;DHT22;9573;50.948;11.600;2022-10-30T05:54:41;12.60;99.90
18882;DHT22;9573;50.948;11.600;2022-10-30T05:57:10;12.60;99.90
18882;DHT22;9573;50.948;11.600;2022-10-30T05:59:37;12.60;99.90
18882;DHT22;9573;50.948;11.600;2022-10-30T06:02:04;12.60;99.90
18882;DHT22;9573;50.948;11.600;2022-10-30T06:04:31;12.70;99.90
18882;DHT22;9573;50.948;11.600;2022-10-30T06:06:58;12.60;99.90
18882;DHT22;9573;50.948;11.600;2022-10-30T06:09:25;12.60;99.90
18882;DHT22;9573;50.948;11.600;2022-10-30T06:11:52;12.60;99.90
18882;DHT22;9573;50.948;11.600;2022-10-30T06:14:21;12.50;99.90
18882;DHT22;9573;50.948;11.600;2022-10-30T06:16:49;12.60;99.90
18882;DHT22;9573;50.948;11.600;2022-10-30T06:19:16;12.60;99.90
18882;DHT22;9573;50.948;11.600;2022-10-30T06:21:43;12.50;99.90
18882;DHT22;9573;50.948;11.600;2022-10-30T06:24:10;12.50;99.90
18882;DHT22;9573;50.948;11.600;2022-10-30T06:26:37;12.50;99.90
18882;DHT22;9573;50.948;11.600;2022-10-30T06:29:05;12.40;99.90
18882;DHT22;9573;50.948;11.600;2022-10-30T06:31:33;12.40;99.90
18882;DHT22;9573;50.948;11.600;2022-10-30T06:34:00;12.40;99.90
18882;DHT22;9573;50.948;11.600;2022-10-30T06:36:27;12.40;99.90
18882;DHT22;9573;50.948;11.600;2022-10-30T06:38:55;12.40;99.90
18882;DHT22;9573;50.948;11.600;2022-10-30T06:41:22;12.50;99.90
18882;DHT22;9573;50.948;11.600;2022-10-30T06:43:49;12.60;99.90
18882;DHT22;9573;50.948;11.600;2022-10-30T06:46:16;12.70;99.90
18882;DHT22;9573;50.948;11.600;2022-10-30T06:48:45;12.90;99.90
18882;DHT22;9573;50.948;11.600;2022-10-30T06:51:13;13.00;99.90
18882;DHT22;9573;50.948;11.600;2022-10-30T06:53:41;13.20;99.90
18882;DHT22;9573;50.948;11.600;2022-10-30T06:56:09;13.30;99.90
18882;DHT22;9573;50.948;11.600;2022-10-30T06:58:36;13.40;99.90
18882;DHT22;9573;50.948;11.600;2022-10-30T07:01:04;13.50;99.90
18882;DHT22;9573;50.948;11.600;2022-10-30T07:03:32;13.50;99.90
18882;DHT22;9573;50.948;11.600;2022-10-30T07:06:01;13.50;99.90
18882;DHT22;9573;50.948;11.600;2022-10-30T07:08:28;13.60;99.90
18882;DHT22;9573;50.948;11.600;2022-10-30T07:10:56;13.70;99.90
18882;DHT22;9573;50.948;11.600;2022-10-30T07:13:23;13.80;99.90
18882;DHT22;9573;50.948;11.600;2022-10-30T07:15:50;13.90;99.90
18882;DHT22;9573;50.948;11.600;2022-10-30T07:18:17;14.90;99.90
18882;DHT22;9573;50.948;11.600;2022-10-30T07:20:44;14.20;99.90
18882;DHT22;9573;50.948;11.600;2022-10-30T07:23:13;14.20;99.90
18882;DHT22;9573;50.948;11.600;2022-10-30T07:25:40;14.30;99.90
18882;DHT22;9573;50.948;11.600;2022-10-30T07:28:07;14.40;99.90
18882;DHT22;9573;50.948;11.600;2022-10-30T07:30:34;14.50;99.90
18882;DHT22;9573;50.948;11.600;2022-10-30T07:33:03;14.70;99.90
18882;DHT22;9573;50.948;11.600;2022-10-30T07:35:32;14.80;99.90
18882;DHT22;9573;50.948;11.600;2022-10-30T07:38:01;15.00;99.90
18882;DHT22;9573;50.948;11.600;2022-10-30T07:40:31;15.10;99.90
18882;DHT22;9573;50.948;11.600;2022-10-30T07:43:01;15.20;99.90
18882;DHT22;9573;50.948;11.600;2022-10-30T07:45:30;15.30;99.90
18882;DHT22;9573;50.948;11.600;2022-10-30T07:47:57;15.40;99.90
18882;DHT22;9573;50.948;11.600;2022-10-30T07:50:25;15.50;99.90
18882;DHT22;9573;50.948;11.600;2022-10-30T07:52:52;15.60;99.90
18882;DHT22;9573;50.948;11.600;2022-10-30T07:55:19;15.60;99.90
18882;DHT22;9573;50.948;11.600;2022-10-30T07:57:48;15.80;99.90
18882;DHT22;9573;50.948;11.600;2022-10-30T08:00:16;15.90;99.90
18882;DHT22;9573;50.948;11.600;2022-10-30T08:02:43;16.10;99.90
18882;DHT22;9573;50.948;11.600;2022-10-30T08:05:14;16.20;99.90
18882;DHT22;9573;50.948;11.600;2022-10-30T08:07:45;16.60;99.90
18882;DHT22;9573;50.948;11.600;2022-10-30T08:10:13;16.90;99.90
18882;DHT22;9573;50.948;11.600;2022-10-30T08:12:40;16.90;99.90
18882;DHT22;9573;50.948;11.600;2022-10-30T08:15:10;16.90;99.90
18882;DHT22;9573;50.948;11.600;2022-10-30T08:17:41;16.90;99.90
18882;DHT22;9573;50.948;11.600;2022-10-30T08:20:10;17.10;99.90
18882;DHT22;9573;50.948;11.600;2022-10-30T08:22:45;17.10;99.90
18882;DHT22;9573;50.948;11.600;2022-10-30T08:25:14;17.20;99.90
18882;DHT22;9573;50.948;11.600;2022-10-30T08:27:49;17.50;99.90
18882;DHT22;9573;50.948;11.600;2022-10-30T08:30:19;18.60;99.90
18882;DHT22;9573;50.948;11.600;2022-10-30T08:32:46;21.20;99.90
18882;DHT22;9573;50.948;11.600;2022-10-30T08:35:14;23.80;99.90
18882;DHT22;9573;50.948;11.600;2022-10-30T08:37:42;25.90;99.90
18882;DHT22;9573;50.948;11.600;2022-10-30T08:40:10;25.80;99.90
18882;DHT22;9573;50.948;11.600;2022-10-30T08:42:37;24.30;99.90
18882;DHT22;9573;50.948;11.600;2022-10-30T08:45:05;23.40;99.90
18882;DHT22;9573;50.948;11.600;2022-10-30T08:47:34;25.10;99.90
18882;DHT22;9573;50.948;11.600;2022-10-30T08:50:01;27.20;99.90
18882;DHT22;9573;50.948;11.600;2022-10-30T08:52:28;28.80;99.90
18882;DHT22;9573;50.948;11.600;2022-10-30T08:54:55;30.00;99.90
18882;DHT22;9573;50.948;11.600;2022-10-30T08:57:23;30.90;99.90
18882;DHT22;9573;50.948;11.600;2022-10-30T08:59:50;31.50;98.90
18882;DHT22;9573;50.948;11.600;2022-10-30T09:02:17;32.10;95.10
18882;DHT22;9573;50.948;11.600;2022-10-30T09:04:45;32.50;92.40
18882;DHT22;9573;50.948;11.600;2022-10-30T09:07:12;32.70;90.60
18882;DHT22;9573;50.948;11.600;2022-10-30T09:09:39;32.70;88.60
18882;DHT22;9573;50.948;11.600;2022-10-30T09:12:07;32.60;86.60
18882;DHT22;9573;50.948;11.600;2022-10-30T09:14:34;33.10;85.90
18882;DHT22;9573;50.948;11.600;2022-10-30T09:17:01;33.50;81.70
18882;DHT22;9573;50.948;11.600;2022-10-30T09:19:28;33.50;80.50
18882;DHT22;9573;50.948;11.600;2022-10-30T09:21:58;33.40;77.50
18882;DHT22;9573;50.948;11.600;2022-10-30T09:24:25;33.50;77.40
18882;DHT22;9573;50.948;11.600;2022-10-30T09:26:54;33.60;77.30
18882;DHT22;9573;50.948;11.600;2022-10-30T09:29:21;33.80;76.20
18882;DHT22;9573;50.948;11.600;2022-10-30T09:31:48;33.90;74.20
18882;DHT22;9573;50.948;11.600;2022-10-30T09:34:15;33.70;72.80
18882;DHT22;9573;50.948;11.600;2022-10-30T09:36:42;33.60;73.50
18882;DHT22;9573;50.948;11.600;2022-10-30T09:39:12;33.70;73.10
18882;DHT22;9573;50.948;11.600;2022-10-30T09:42:08;33.90;72.80
18882;DHT22;9573;50.948;11.600;2022-10-30T09:44:52;33.90;71.40
18882;DHT22;9573;50.948;11.600;2022-10-30T09:47:34;33.50;71.80
18882;DHT22;9573;50.948;11.600;2022-10-30T09:50:23;33.40;72.00
18882;DHT22;9573;50.948;11.600;2022-10-30T09:53:00;33.60;71.30
18882;DHT22;9573;50.948;11.600;2022-10-30T09:55:35;33.90;70.50
18882;DHT22;9573;50.948;11.600;2022-10-30T09:58:17;34.20;70.40
18882;DHT22;9573;50.948;11.600;2022-10-30T10:00:51;33.90;70.50
18882;DHT22;9573;50.948;11.600;2022-10-30T10:03:30;34.10;70.20
18882;DHT22;9573;50.948;11.600;2022-10-30T10:06:04;33.90;70.00
18882;DHT22;9573;50.948;11.600;2022-10-30T10:08:40;33.90;71.00
18882;DHT22;9573;50.948;11.600;2022-10-30T10:11:14;34.20;70.60
18882;DHT22;9573;50.948;11.600;2022-10-30T10:13:46;34.30;70.10
18882;DHT22;9573;50.948;11.600;2022-10-30T10:16:17;34.30;69.50
18882;DHT22;9573;50.948;11.600;2022-10-30T10:18:47;34.40;68.70
18882;DHT22;9573;50.948;11.600;2022-10-30T10:21:23;34.30;69.20
18882;DHT22;9573;50.948;11.600;2022-10-30T10:23:54;34.60;70.00
18882;DHT22;9573;50.948;11.600;2022-10-30T10:26:29;34.80;67.80
18882;DHT22;9573;50.948;11.600;2022-10-30T10:29:26;34.70;68.50
18882;DHT22;9573;50.948;11.600;2022-10-30T10:32:30;34.90;68.90
18882;DHT22;9573;50.948;11.600;2022-10-30T10:35:22;35.00;66.70
18882;DHT22;9573;50.948;11.600;2022-10-30T10:38:01;35.30;66.60
18882;DHT22;9573;50.948;11.600;2022-10-30T10:40:44;35.40;65.90
18882;DHT22;9573;50.948;11.600;2022-10-30T10:43:28;35.30;65.00
18882;DHT22;9573;50.948;11.600;2022-10-30T10:46:18;35.10;66.30
18882;DHT22;9573;50.948;11.600;2022-10-30T10:49:00;34.80;65.60
18882;DHT22;9573;50.948;11.600;2022-10-30T10:51:36;35.00;66.00
18882;DHT22;9573;50.948;11.600;2022-10-30T10:54:09;35.10;65.80
18882;DHT22;9573;50.948;11.600;2022-10-30T10:56:41;35.30;65.90
18882;DHT22;9573;50.948;11.600;2022-10-30T10:59:16;35.50;64.70
18882;DHT22;9573;50.948;11.600;2022-10-30T11:01:50;35.60;65.30
18882;DHT22;9573;50.948;11.600;2022-10-30T11:04:27;35.40;63.60
18882;DHT22;9573;50.948;11.600;2022-10-30T11:06:57;35.00;63.80
18882;DHT22;9573;50.948;11.600;2022-10-30T11:09:25;34.10;66.00
18882;DHT22;9573;50.948;11.600;2022-10-30T11:11:53;33.30;67.60
18882;DHT22;9573;50.948;11.600;2022-10-30T11:14:23;33.00;67.90
18882;DHT22;9573;50.948;11.600;2022-10-30T11:17:02;32.30;69.40
18882;DHT22;9573;50.948;11.600;2022-10-30T11:19:31;31.20;72.40
18882;DHT22;9573;50.948;11.600;2022-10-30T11:22:00;30.60;74.00
18882;DHT22;9573;50.948;11.600;2022-10-30T11:24:29;29.80;76.30
18882;DHT22;9573;50.948;11.600;2022-10-30T11:27:15;29.50;77.60
18882;DHT22;9573;50.948;11.600;2022-10-30T11:29:51;30.40;76.60
18882;DHT22;9573;50.948;11.600;2022-10-30T11:32:23;30.90;76.40
18882;DHT22;9573;50.948;11.600;2022-10-30T11:35:00;30.70;75.40
18882;DHT22;9573;50.948;11.600;2022-10-30T11:37:30;30.00;76.70
18882;DHT22;9573;50.948;11.600;2022-10-30T11:40:04;29.60;78.20
18882;DHT22;9573;50.948;11.600;2022-10-30T11:42:33;30.00;77.20
18882;DHT22;9573;50.948;11.600;2022-10-30T11:45:04;30.00;77.30
18882;DHT22;9573;50.948;11.600;2022-10-30T11:47:33;29.60;78.30
18882;DHT22;9573;50.948;11.600;2022-10-30T11:50:03;29.40;78.50
18882;DHT22;9573;50.948;11.600;2022-10-30T11:52:36;29.20;79.90
18882;DHT22;9573;50.948;11.600;2022-10-30T11:55:12;29.50;79.50
18882;DHT22;9573;50.948;11.600;2022-10-30T11:57:42;30.30;77.70
18882;DHT22;9573;50.948;11.600;2022-10-30T12:00:17;31.10;75.70
18882;DHT22;9573;50.948;11.600;2022-10-30T12:02:47;31.90;74.80
18882;DHT22;9573;50.948;11.600;2022-10-30T12:05:35;32.30;72.40
18882;DHT22;9573;50.948;11.600;2022-10-30T12:08:17;32.40;72.00
18882;DHT22;9573;50.948;11.600;2022-10-30T12:10:54;32.50;71.50
18882;DHT22;9573;50.948;11.600;2022-10-30T12:13:24;32.50;71.90
18882;DHT22;9573;50.948;11.600;2022-10-30T12:16:06;32.50;71.60
18882;DHT22;9573;50.948;11.600;2022-10-30T12:18:36;32.60;71.70
18882;DHT22;9573;50.948;11.600;2022-10-30T12:21:03;32.70;70.90
18882;DHT22;9573;50.948;11.600;2022-10-30T12:23:31;32.60;71.30
18882;DHT22;9573;50.948;11.600;2022-10-30T12:26:00;32.40;71.00
18882;DHT22;9573;50.948;11.600;2022-10-30T12:28:34;32.30;71.60
18882;DHT22;9573;50.948;11.600;2022-10-30T12:31:07;32.20;72.60
18882;DHT22;9573;50.948;11.600;2022-10-30T12:33:38;32.20;72.50
18882;DHT22;9573;50.948;11.600;2022-10-30T12:36:12;32.10;72.80
18882;DHT22;9573;50.948;11.600;2022-10-30T12:38:44;31.80;73.50
18882;DHT22;9573;50.948;11.600;2022-10-30T12:41:17;31.80;73.50
18882;DHT22;9573;50.948;11.600;2022-10-30T12:43:53;31.80;73.00
18882;DHT22;9573;50.948;11.600;2022-10-30T12:46:31;31.90;72.80
18882;DHT22;9573;50.948;11.600;2022-10-30T12:49:07;31.90;72.60
18882;DHT22;9573;50.948;11.600;2022-10-30T12:51:45;32.00;73.30
18882;DHT22;9573;50.948;11.600;2022-10-30T12:54:21;32.10;73.00
18882;DHT22;9573;50.948;11.600;2022-10-30T12:57:06;32.00;70.50
18882;DHT22;9573;50.948;11.600;2022-10-30T12:59:42;31.80;71.10
18882;DHT22;9573;50.948;11.600;2022-10-30T13:02:27;31.60;69.80
18882;DHT22;9573;50.948;11.600;2022-10-30T13:05:05;31.50;69.20
18882;DHT22;9573;50.948;11.600;2022-10-30T13:07:46;31.70;71.00
18882;DHT22;9573;50.948;11.600;2022-10-30T13:10:24;31.70;71.50
18882;DHT22;9573;50.948;11.600;2022-10-30T13:12:58;31.90;71.60
18882;DHT22;9573;50.948;11.600;2022-10-30T13:15:32;31.80;70.90
18882;DHT22;9573;50.948;11.600;2022-10-30T13:18:13;31.80;70.90
18882;DHT22;9573;50.948;11.600;2022-10-30T13:20:46;31.60;70.50
18882;DHT22;9573;50.948;11.600;2022-10-30T13:23:29;31.50;71.10
18882;DHT22;9573;50.948;11.600;2022-10-30T13:26:07;31.40;70.80
18882;DHT22;9573;50.948;11.600;2022-10-30T13:28:45;31.40;71.10
18882;DHT22;9573;50.948;11.600;2022-10-30T13:31:21;31.40;71.00
18882;DHT22;9573;50.948;11.600;2022-10-30T13:34:00;31.10;72.50
18882;DHT22;9573;50.948;11.600;2022-10-30T13:36:35;30.90;71.50
18882;DHT22;9573;50.948;11.600;2022-10-30T13:39:16;30.80;72.10
18882;DHT22;9573;50.948;11.600;2022-10-30T13:42:05;30.80;73.30
18882;DHT22;9573;50.948;11.600;2022-10-30T13:44:48;30.20;73.90
18882;DHT22;9573;50.948;11.600;2022-10-30T13:47:31;30.40;73.80
18882;DHT22;9573;50.948;11.600;2022-10-30T13:50:24;30.30;74.00
18882;DHT22;9573;50.948;11.600;2022-10-30T13:53:03;30.20;75.40
18882;DHT22;9573;50.948;11.600;2022-10-30T13:55:34;29.90;75.70
18882;DHT22;9573;50.948;11.600;2022-10-30T13:58:09;29.50;77.00
18882;DHT22;9573;50.948;11.600;2022-10-30T14:00:52;28.90;79.50
18882;DHT22;9573;50.948;11.600;2022-10-30T14:03:40;28.30;81.90
18882;DHT22;9573;50.948;11.600;2022-10-30T14:06:21;27.70;82.60
18882;DHT22;9573;50.948;11.600;2022-10-30T14:08:58;27.20;84.80
18882;DHT22;9573;50.948;11.600;2022-10-30T14:11:32;26.70;86.30
18882;DHT22;9573;50.948;11.600;2022-10-30T14:14:04;26.40;88.10
18882;DHT22;9573;50.948;11.600;2022-10-30T14:16:39;26.10;89.90
18882;DHT22;9573;50.948;11.600;2022-10-30T14:19:08;25.80;90.50
18882;DHT22;9573;50.948;11.600;2022-10-30T14:21:42;25.50;90.90
18882;DHT22;9573;50.948;11.600;2022-10-30T14:24:19;25.30;91.60
18882;DHT22;9573;50.948;11.600;2022-10-30T14:26:49;25.10;92.70
18882;DHT22;9573;50.948;11.600;2022-10-30T14:29:46;24.80;93.10
18882;DHT22;9573;50.948;11.600;2022-10-30T14:32:41;24.60;93.60
18882;DHT22;9573;50.948;11.600;2022-10-30T14:35:38;24.40;94.00
18882;DHT22;9573;50.948;11.600;2022-10-30T14:38:28;24.10;94.60
18882;DHT22;9573;50.948;11.600;2022-10-30T14:44:49;23.60;96.30
18882;DHT22;9573;50.948;11.600;2022-10-30T14:50:37;23.10;98.20
18882;DHT22;9573;50.948;11.600;2022-10-30T14:53:33;22.90;99.10
18882;DHT22;9573;50.948;11.600;2022-10-30T14:56:09;22.70;99.90
18882;DHT22;9573;50.948;11.600;2022-10-30T15:02:08;22.20;99.90
18882;DHT22;9573;50.948;11.600;2022-10-30T15:04:53;21.90;99.90
18882;DHT22;9573;50.948;11.600;2022-10-30T15:07:32;21.70;99.90
18882;DHT22;9573;50.948;11.600;2022-10-30T15:10:16;21.50;99.90
18882;DHT22;9573;50.948;11.600;2022-10-30T15:13:04;21.20;99.90
18882;DHT22;9573;50.948;11.600;2022-10-30T15:15:33;21.00;99.90
18882;DHT22;9573;50.948;11.600;2022-10-30T15:18:07;20.80;99.90
18882;DHT22;9573;50.948;11.600;2022-10-30T15:20:37;20.60;99.90
18882;DHT22;9573;50.948;11.600;2022-10-30T15:23:08;20.40;99.90
18882;DHT22;9573;50.948;11.600;2022-10-30T15:25:46;20.30;99.90
18882;DHT22;9573;50.948;11.600;2022-10-30T15:28:19;20.10;99.90
18882;DHT22;9573;50.948;11.600;2022-10-30T15:30:58;19.90;99.90
18882;DHT22;9573;50.948;11.600;2022-10-30T15:33:26;19.70;99.90
18882;DHT22;9573;50.948;11.600;2022-10-30T15:35:54;19.50;99.90
18882;DHT22;9573;50.948;11.600;2022-10-30T15:38:22;19.20;99.90
18882;DHT22;9573;50.948;11.600;2022-10-30T15:40:55;19.10;99.90
18882;DHT22;9573;50.948;11.600;2022-10-30T15:43:27;18.90;99.90
18882;DHT22;9573;50.948;11.600;2022-10-30T15:45:56;18.70;99.90
18882;DHT22;9573;50.948;11.600;2022-10-30T15:48:25;18.50;99.90
18882;DHT22;9573;50.948;11.600;2022-10-30T15:50:58;18.40;99.90
18882;DHT22;9573;50.948;11.600;2022-10-30T15:53:36;18.20;99.90
18882;DHT22;9573;50.948;11.600;2022-10-30T15:56:16;18.10;99.90
18882;DHT22;9573;50.948;11.600;2022-10-30T15:58:48;17.90;99.90
18882;DHT22;9573;50.948;11.600;2022-10-30T16:01:23;17.80;99.90
18882;DHT22;9573;50.948;11.600;2022-10-30T16:03:52;17.60;99.90
18882;DHT22;9573;50.948;11.600;2022-10-30T16:06:23;17.50;99.90
18882;DHT22;9573;50.948;11.600;2022-10-30T16:08:51;17.50;99.90
18882;DHT22;9573;50.948;11.600;2022-10-30T16:11:20;17.30;99.90
18882;DHT22;9573;50.948;11.600;2022-10-30T16:13:48;17.20;99.90
18882;DHT22;9573;50.948;11.600;2022-10-30T16:16:20;17.10;99.90
18882;DHT22;9573;50.948;11.600;2022-10-30T16:18:48;16.90;99.90
18882;DHT22;9573;50.948;11.600;2022-10-30T16:21:17;16.80;99.90
18882;DHT22;9573;50.948;11.600;2022-10-30T16:23:53;16.70;99.90
18882;DHT22;9573;50.948;11.600;2022-10-30T16:26:28;16.60;99.90
18882;DHT22;9573;50.948;11.600;2022-10-30T16:29:00;16.50;99.90
18882;DHT22;9573;50.948;11.600;2022-10-30T16:31:31;16.40;99.90
18882;DHT22;9573;50.948;11.600;2022-10-30T16:34:00;16.30;99.90
18882;DHT22;9573;50.948;11.600;2022-10-30T16:36:29;16.20;99.90
18882;DHT22;9573;50.948;11.600;2022-10-30T16:38:56;16.20;99.90
18882;DHT22;9573;50.948;11.600;2022-10-30T16:41:27;16.00;99.90
18882;DHT22;9573;50.948;11.600;2022-10-30T16:44:13;16.00;99.90
18882;DHT22;9573;50.948;11.600;2022-10-30T16:46:47;15.90;99.90
18882;DHT22;9573;50.948;11.600;2022-10-30T16:49:22;15.80;99.90
18882;DHT22;9573;50.948;11.600;2022-10-30T16:51:56;15.70;99.90
18882;DHT22;9573;50.948;11.600;2022-10-30T16:54:27;15.60;99.90
18882;DHT22;9573;50.948;11.600;2022-10-30T16:56:58;15.50;99.90
18882;DHT22;9573;50.948;11.600;2022-10-30T16:59:31;15.40;99.90
18882;DHT22;9573;50.948;11.600;2022-10-30T17:02:04;15.40;99.90
18882;DHT22;9573;50.948;11.600;2022-10-30T17:04:33;15.30;99.90
18882;DHT22;9573;50.948;11.600;2022-10-30T17:07:06;15.20;99.90
18882;DHT22;9573;50.948;11.600;2022-10-30T17:09:44;15.20;99.90
18882;DHT22;9573;50.948;11.600;2022-10-30T17:12:20;15.10;99.90
18882;DHT22;9573;50.948;11.600;2022-10-30T17:14:55;15.00;99.90
18882;DHT22;9573;50.948;11.600;2022-10-30T17:17:31;15.00;99.90
18882;DHT22;9573;50.948;11.600;2022-10-30T17:20:05;14.90;99.90
18882;DHT22;9573;50.948;11.600;2022-10-30T17:22:37;14.80;99.90
18882;DHT22;9573;50.948;11.600;2022-10-30T17:25:14;14.80;99.90
18882;DHT22;9573;50.948;11.600;2022-10-30T17:27:46;14.70;99.90
18882;DHT22;9573;50.948;11.600;2022-10-30T17:30:38;14.60;99.90
18882;DHT22;9573;50.948;11.600;2022-10-30T17:33:31;14.60;99.90
18882;DHT22;9573;50.948;11.600;2022-10-30T17:36:04;14.30;99.90
18882;DHT22;9573;50.948;11.600;2022-10-30T17:38:32;14.40;99.90
18882;DHT22;9573;50.948;11.600;2022-10-30T17:41:00;14.40;99.90
18882;DHT22;9573;50.948;11.600;2022-10-30T17:43:30;14.40;99.90
18882;DHT22;9573;50.948;11.600;2022-10-30T17:45:59;14.30;99.90
18882;DHT22;9573;50.948;11.600;2022-10-30T17:48:28;14.20;99.90
18882;DHT22;9573;50.948;11.600;2022-10-30T17:50:55;14.20;99.90
18882;DHT22;9573;50.948;11.600;2022-10-30T17:53:24;14.20;99.90
18882;DHT22;9573;50.948;11.600;2022-10-30T17:55:57;14.20;99.90
18882;DHT22;9573;50.948;11.600;2022-10-30T17:58:27;14.10;99.90
18882;DHT22;9573;50.948;11.600;2022-10-30T18:00:55;14.00;99.90
18882;DHT22;9573;50.948;11.600;2022-10-30T18:03:22;14.00;99.90
18882;DHT22;9573;50.948;11.600;2022-10-30T18:05:50;13.90;99.90
18882;DHT22;9573;50.948;11.600;2022-10-30T18:08:18;13.90;99.90
18882;DHT22;9573;50.948;11.600;2022-10-30T18:10:45;13.90;99.90
18882;DHT22;9573;50.948;11.600;2022-10-30T18:13:13;13.80;99.90
18882;DHT22;9573;50.948;11.600;2022-10-30T18:15:43;13.80;99.90
18882;DHT22;9573;50.948;11.600;2022-10-30T18:18:11;13.70;99.90
18882;DHT22;9573;50.948;11.600;2022-10-30T18:20:38;13.70;99.90
18882;DHT22;9573;50.948;11.600;2022-10-30T18:23:16;13.60;99.90
18882;DHT22;9573;50.948;11.600;2022-10-30T18:25:45;13.60;99.90
18882;DHT22;9573;50.948;11.600;2022-10-30T18:28:12;13.50;99.90
18882;DHT22;9573;50.948;11.600;2022-10-30T18:30:39;13.50;99.90
18882;DHT22;9573;50.948;11.600;2022-10-30T18:33:09;13.40;99.90
18882;DHT22;9573;50.948;11.600;2022-10-30T18:35:37;13.40;99.90
18882;DHT22;9573;50.948;11.600;2022-10-30T18:38:05;13.40;99.90
18882;DHT22;9573;50.948;11.600;2022-10-30T18:40:33;13.30;99.90
18882;DHT22;9573;50.948;11.600;2022-10-30T18:43:01;13.30;99.90
18882;DHT22;9573;50.948;11.600;2022-10-30T18:45:32;12.70;99.90
18882;DHT22;9573;50.948;11.600;2022-10-30T18:48:01;13.20;99.90
18882;DHT22;9573;50.948;11.600;2022-10-30T18:50:30;13.10;99.90
18882;DHT22;9573;50.948;11.600;2022-10-30T18:52:59;13.10;99.90
18882;DHT22;9573;50.948;11.600;2022-10-30T18:55:31;13.10;99.90
18882;DHT22;9573;50.948;11.600;2022-10-30T18:58:00;13.10;99.90
18882;DHT22;9573;50.948;11.600;2022-10-30T19:00:29;13.10;99.90
18882;DHT22;9573;50.948;11.600;2022-10-30T19:02:57;13.00;99.90
18882;DHT22;9573;50.948;11.600;2022-10-30T19:05:30;13.00;99.90
18882;DHT22;9573;50.948;11.600;2022-10-30T19:07:59;13.00;99.90
18882;DHT22;9573;50.948;11.600;2022-10-30T19:10:28;12.90;99.90
18882;DHT22;9573;50.948;11.600;2022-10-30T19:12:57;12.80;99.90
18882;DHT22;9573;50.948;11.600;2022-10-30T19:15:27;12.80;99.90
18882;DHT22;9573;50.948;11.600;2022-10-30T19:17:56;12.70;99.90
18882;DHT22;9573;50.948;11.600;2022-10-30T19:20:23;12.70;99.90
18882;DHT22;9573;50.948;11.600;2022-10-30T19:22:55;12.70;99.90
18882;DHT22;9573;50.948;11.600;2022-10-30T19:25:23;12.60;99.90
18882;DHT22;9573;50.948;11.600;2022-10-30T19:27:52;12.60;99.90
18882;DHT22;9573;50.948;11.600;2022-10-30T19:30:20;12.50;99.90
18882;DHT22;9573;50.948;11.600;2022-10-30T19:32:47;12.50;99.90
18882;DHT22;9573;50.948;11.600;2022-10-30T19:35:16;12.50;99.90
18882;DHT22;9573;50.948;11.600;2022-10-30T19:37:51;12.40;99.90
18882;DHT22;9573;50.948;11.600;2022-10-30T19:40:24;12.40;99.90
18882;DHT22;9573;50.948;11.600;2022-10-30T19:42:53;12.40;99.90
18882;DHT22;9573;50.948;11.600;2022-10-30T19:45:22;12.30;99.90
18882;DHT22;9573;50.948;11.600;2022-10-30T19:47:52;12.30;99.90
18882;DHT22;9573;50.948;11.600;2022-10-30T19:50:25;12.20;99.90
18882;DHT22;9573;50.948;11.600;2022-10-30T19:52:55;12.20;99.90
18882;DHT22;9573;50.948;11.600;2022-10-30T19:55:25;12.20;99.90
18882;DHT22;9573;50.948;11.600;2022-10-30T19:57:54;12.10;99.90
18882;DHT22;9573;50.948;11.600;2022-10-30T20:00:25;12.10;99.90
18882;DHT22;9573;50.948;11.600;2022-10-30T20:02:55;12.10;99.90
18882;DHT22;9573;50.948;11.600;2022-10-30T20:05:25;12.10;99.90
18882;DHT22;9573;50.948;11.600;2022-10-30T20:08:01;12.10;99.90
18882;DHT22;9573;50.948;11.600;2022-10-30T20:10:33;12.00;99.90
18882;DHT22;9573;50.948;11.600;2022-10-30T20:13:01;12.00;99.90
18882;DHT22;9573;50.948;11.600;2022-10-30T20:15:28;12.00;99.90
18882;DHT22;9573;50.948;11.600;2022-10-30T20:17:56;12.00;99.90
18882;DHT22;9573;50.948;11.600;2022-10-30T20:20:26;11.90;99.90
18882;DHT22;9573;50.948;11.600;2022-10-30T20:22:54;11.90;99.90
18882;DHT22;9573;50.948;11.600;2022-10-30T20:25:24;11.90;99.90
18882;DHT22;9573;50.948;11.600;2022-10-30T20:27:58;11.80;99.90
18882;DHT22;9573;50.948;11.600;2022-10-30T20:30:27;11.80;99.90
18882;DHT22;9573;50.948;11.600;2022-10-30T20:32:55;11.80;99.90
18882;DHT22;9573;50.948;11.600;2022-10-30T20:35:25;11.80;99.90
18882;DHT22;9573;50.948;11.600;2022-10-30T20:37:57;11.80;99.90
18882;DHT22;9573;50.948;11.600;2022-10-30T20:40:25;11.70;99.90
18882;DHT22;9573;50.948;11.600;2022-10-30T20:42:54;11.70;99.90
18882;DHT22;9573;50.948;11.600;2022-10-30T20:45:25;11.70;99.90
18882;DHT22;9573;50.948;11.600;2022-10-30T20:47:52;11.60;99.90
18882;DHT22;9573;50.948;11.600;2022-10-30T20:50:20;11.60;99.90
18882;DHT22;9573;50.948;11.600;2022-10-30T20:52:47;11.60;99.90
18882;DHT22;9573;50.948;11.600;2022-10-30T20:55:14;11.60;99.90
18882;DHT22;9573;50.948;11.600;2022-10-30T20:57:41;11.60;99.90
